createdAt,value
2023-07-10T00:00:53.778Z,50.18
2023-07-10T00:01:53.781Z,50.29
2023-07-10T00:02:53.825Z,50.29
2023-07-10T00:03:53.861Z,50.48
2023-07-10T00:04:53.788Z,50.38
2023-07-10T00:05:53.821Z,50.48
2023-07-10T00:06:53.858Z,50.38
2023-07-10T00:07:53.821Z,50.48
2023-07-10T00:08:53.830Z,50.58
2023-07-10T00:09:53.849Z,50.58
2023-07-10T00:10:53.881Z,50.58
2023-07-10T00:11:53.918Z,50.68
2023-07-10T00:12:53.888Z,50.58
2023-07-10T00:13:53.959Z,50.58
2023-07-10T00:14:53.920Z,50.68
2023-07-10T00:15:53.926Z,50.58
2023-07-10T00:16:54.016Z,50.68
2023-07-10T00:17:54.009Z,50.68
2023-07-10T00:18:53.997Z,50.78
2023-07-10T00:19:54.019Z,50.68
2023-07-10T00:20:54.014Z,50.71
2023-07-10T00:21:54.029Z,50.71
2023-07-10T00:22:54.066Z,50.68
2023-07-10T00:23:54.055Z,50.78
2023-07-10T00:24:54.082Z,50.68
2023-07-10T00:25:54.078Z,50.88
2023-07-10T00:26:54.086Z,50.90
2023-07-10T00:27:54.116Z,51.00
2023-07-10T00:28:54.135Z,50.90
2023-07-10T00:29:54.176Z,50.90
2023-07-10T00:30:54.156Z,50.88
2023-07-10T00:31:54.124Z,51.00
2023-07-10T00:32:54.200Z,51.00
2023-07-10T00:33:54.134Z,51.00
2023-07-10T00:34:54.145Z,51.00
2023-07-10T00:35:54.150Z,51.00
2023-07-10T00:36:54.186Z,51.00
2023-07-10T00:37:54.199Z,51.00
2023-07-10T00:38:54.223Z,51.10
2023-07-10T00:39:54.204Z,51.10
2023-07-10T00:40:54.209Z,51.10
2023-07-10T00:41:54.245Z,51.20
2023-07-10T00:42:54.255Z,51.10
2023-07-10T00:43:54.284Z,51.10
2023-07-10T00:44:54.268Z,51.10
2023-07-10T00:45:54.312Z,51.10
2023-07-10T00:46:54.458Z,51.20
2023-07-10T00:47:54.406Z,51.30
2023-07-10T00:48:54.390Z,51.20
2023-07-10T00:49:54.409Z,51.30
2023-07-10T00:50:54.390Z,51.20
2023-07-10T00:51:54.418Z,51.30
2023-07-10T00:52:54.444Z,51.30
2023-07-10T00:53:54.470Z,51.50
2023-07-10T00:54:54.495Z,51.40
2023-07-10T00:55:54.526Z,51.40
2023-07-10T00:56:54.510Z,51.40
2023-07-10T00:57:54.535Z,51.40
2023-07-10T00:58:54.562Z,51.40
2023-07-10T00:59:54.598Z,51.50
2023-07-10T01:00:54.624Z,51.40
2023-07-10T01:01:54.613Z,51.60
2023-07-10T01:02:54.692Z,51.50
2023-07-10T01:03:54.611Z,51.60
2023-07-10T01:04:54.579Z,51.60
2023-07-10T01:05:54.616Z,51.60
2023-07-10T01:06:54.642Z,51.50
2023-07-10T01:07:54.606Z,51.50
2023-07-10T01:08:54.638Z,51.60
2023-07-10T01:09:54.678Z,51.60
2023-07-10T01:10:54.695Z,51.70
2023-07-10T01:11:54.722Z,51.70
2023-07-10T01:12:54.738Z,51.70
2023-07-10T01:13:54.816Z,51.79
2023-07-10T01:14:54.756Z,51.60
2023-07-10T01:15:54.772Z,51.70
2023-07-10T01:16:54.825Z,51.79
2023-07-10T01:17:54.881Z,51.79
2023-07-10T01:18:54.825Z,51.70
2023-07-10T01:19:54.835Z,51.79
2023-07-10T01:20:54.861Z,51.89
2023-07-10T01:21:54.881Z,51.70
2023-07-10T01:22:54.869Z,51.70
2023-07-10T01:23:54.882Z,51.89
2023-07-10T01:24:54.913Z,51.89
2023-07-10T01:25:54.939Z,51.92
2023-07-10T01:26:54.959Z,52.02
2023-07-10T01:27:54.939Z,52.02
2023-07-10T01:28:54.956Z,51.82
2023-07-10T01:29:54.971Z,51.92
2023-07-10T01:30:55.007Z,51.92
2023-07-10T01:31:55.005Z,52.02
2023-07-10T01:32:55.026Z,52.12
2023-07-10T01:33:55.035Z,52.02
2023-07-10T01:34:55.046Z,52.02
2023-07-10T01:35:55.093Z,52.09
2023-07-10T01:36:55.068Z,52.31
2023-07-10T01:37:55.101Z,52.22
2023-07-10T01:38:55.107Z,52.41
2023-07-10T01:39:55.132Z,52.31
2023-07-10T01:40:55.158Z,52.12
2023-07-10T01:41:55.133Z,52.22
2023-07-10T01:42:55.154Z,52.31
2023-07-10T01:43:55.165Z,52.22
2023-07-10T01:44:55.200Z,52.31
2023-07-10T01:45:55.228Z,52.12
2023-07-10T01:46:55.252Z,52.12
2023-07-10T01:47:55.354Z,52.22
2023-07-10T01:48:55.352Z,52.22
2023-07-10T01:49:55.273Z,52.12
2023-07-10T01:50:55.238Z,52.22
2023-07-10T01:51:55.209Z,52.22
2023-07-10T01:52:55.240Z,52.22
2023-07-10T01:53:55.265Z,52.12
2023-07-10T01:54:57.323Z,52.12
2023-07-10T01:55:55.288Z,52.12
2023-07-10T01:56:55.293Z,52.12
2023-07-10T01:57:55.326Z,52.22
2023-07-10T01:58:55.350Z,52.22
2023-07-10T01:59:55.378Z,52.31
2023-07-10T02:00:55.386Z,52.31
2023-07-10T02:01:55.400Z,52.31
2023-07-10T02:02:55.460Z,52.31
2023-07-10T02:03:55.494Z,52.31
2023-07-10T02:04:55.406Z,52.41
2023-07-10T02:05:55.522Z,52.31
2023-07-10T02:06:55.445Z,52.22
2023-07-10T02:07:55.461Z,52.41
2023-07-10T02:08:55.491Z,52.31
2023-07-10T02:09:55.505Z,52.31
2023-07-10T02:10:55.554Z,52.22
2023-07-10T02:11:55.503Z,52.51
2023-07-10T02:12:55.533Z,52.31
2023-07-10T02:13:55.573Z,52.41
2023-07-10T02:14:55.543Z,52.41
2023-07-10T02:15:55.571Z,52.31
2023-07-10T02:16:55.619Z,52.22
2023-07-10T02:17:55.634Z,52.31
2023-07-10T02:18:55.621Z,52.31
2023-07-10T02:19:55.652Z,52.31
2023-07-10T02:20:55.683Z,52.31
2023-07-10T02:21:55.683Z,52.22
2023-07-10T02:22:55.684Z,52.22
2023-07-10T02:23:55.703Z,52.22
2023-07-10T02:24:55.734Z,52.41
2023-07-10T02:25:55.777Z,52.51
2023-07-10T02:26:55.758Z,52.51
2023-07-10T02:27:55.772Z,52.31
2023-07-10T02:28:55.784Z,52.31
2023-07-10T02:29:55.800Z,52.31
2023-07-10T02:30:55.832Z,52.31
2023-07-10T02:31:55.933Z,52.41
2023-07-10T02:32:55.893Z,52.41
2023-07-10T02:33:55.846Z,52.31
2023-07-10T02:34:55.836Z,52.51
2023-07-10T02:35:55.908Z,52.51
2023-07-10T02:36:55.866Z,52.51
2023-07-10T02:37:55.935Z,52.41
2023-07-10T02:38:55.900Z,52.41
2023-07-10T02:39:55.916Z,52.51
2023-07-10T02:40:55.971Z,52.51
2023-07-10T02:41:55.961Z,52.61
2023-07-10T02:42:55.949Z,52.61
2023-07-10T02:43:55.976Z,52.61
2023-07-10T02:44:55.984Z,52.31
2023-07-10T02:45:56.106Z,52.41
2023-07-10T02:46:56.009Z,52.51
2023-07-10T02:47:56.045Z,52.51
2023-07-10T02:48:56.034Z,52.61
2023-07-10T02:49:56.081Z,52.51
2023-07-10T02:50:56.103Z,52.61
2023-07-10T02:51:56.123Z,52.61
2023-07-10T02:52:56.148Z,52.41
2023-07-10T02:53:56.196Z,52.41
2023-07-10T02:54:56.155Z,52.51
2023-07-10T02:55:56.191Z,52.61
2023-07-10T02:56:56.159Z,52.61
2023-07-10T02:57:56.200Z,52.61
2023-07-10T02:58:56.171Z,52.71
2023-07-10T02:59:56.188Z,52.81
2023-07-10T03:00:56.232Z,52.81
2023-07-10T03:01:56.224Z,52.61
2023-07-10T03:02:56.278Z,52.61
2023-07-10T03:03:56.258Z,52.71
2023-07-10T03:04:56.333Z,52.61
2023-07-10T03:05:56.334Z,52.51
2023-07-10T03:06:56.296Z,52.61
2023-07-10T03:07:56.303Z,52.61
2023-07-10T03:08:56.331Z,52.61
2023-07-10T03:09:56.387Z,52.81
2023-07-10T03:10:56.381Z,52.84
2023-07-10T03:11:56.347Z,52.84
2023-07-10T03:12:56.370Z,52.73
2023-07-10T03:13:56.465Z,52.84
2023-07-10T03:14:56.520Z,52.84
2023-07-10T03:15:56.501Z,52.94
2023-07-10T03:16:56.427Z,52.94
2023-07-10T03:17:56.544Z,52.84
2023-07-10T03:18:56.452Z,52.84
2023-07-10T03:19:56.452Z,53.03
2023-07-10T03:20:56.480Z,52.94
2023-07-10T03:21:56.461Z,52.94
2023-07-10T03:22:56.465Z,52.84
2023-07-10T03:23:56.478Z,52.84
2023-07-10T03:24:56.475Z,52.94
2023-07-10T03:25:56.522Z,52.94
2023-07-10T03:26:56.496Z,52.94
2023-07-10T03:27:56.503Z,52.94
2023-07-10T03:28:56.532Z,52.94
2023-07-10T03:29:56.543Z,53.13
2023-07-10T03:30:56.643Z,53.03
2023-07-10T03:31:56.552Z,52.94
2023-07-10T03:32:56.613Z,53.03
2023-07-10T03:33:56.580Z,53.03
2023-07-10T03:34:56.603Z,52.94
2023-07-10T03:35:56.625Z,52.94
2023-07-10T03:36:56.643Z,52.84
2023-07-10T03:37:56.664Z,52.94
2023-07-10T03:38:56.712Z,53.03
2023-07-10T03:39:56.676Z,52.94
2023-07-10T03:40:56.663Z,52.84
2023-07-10T03:41:56.687Z,52.94
2023-07-10T03:42:56.664Z,53.03
2023-07-10T03:43:56.704Z,53.03
2023-07-10T03:44:56.648Z,52.94
2023-07-10T03:45:56.670Z,53.03
2023-07-10T03:46:56.695Z,52.84
2023-07-10T03:47:56.735Z,52.94
2023-07-10T03:48:56.715Z,52.94
2023-07-10T03:49:56.684Z,52.94
2023-07-10T03:50:56.678Z,52.94
2023-07-10T03:51:56.669Z,52.94
2023-07-10T03:52:56.658Z,52.84
2023-07-10T03:53:56.646Z,52.81
2023-07-10T03:54:56.681Z,52.81
2023-07-10T03:55:56.697Z,52.91
2023-07-10T03:56:56.690Z,52.61
2023-07-10T03:57:56.700Z,52.81
2023-07-10T03:58:56.684Z,52.81
2023-07-10T03:59:56.660Z,52.91
2023-07-10T04:00:58.063Z,52.91
2023-07-10T04:01:56.699Z,52.94
2023-07-10T04:02:56.769Z,53.03
2023-07-10T04:03:56.767Z,53.03
2023-07-10T04:04:56.752Z,52.84
2023-07-10T04:05:56.786Z,52.84
2023-07-10T04:06:56.853Z,52.94
2023-07-10T04:07:56.790Z,52.91
2023-07-10T04:08:56.791Z,52.91
2023-07-10T04:09:56.779Z,53.01
2023-07-10T04:10:56.791Z,53.01
2023-07-10T04:11:56.785Z,53.03
2023-07-10T04:12:56.776Z,53.03
2023-07-10T04:13:56.826Z,53.13
2023-07-10T04:14:56.782Z,53.13
2023-07-10T04:15:56.771Z,53.03
2023-07-10T04:16:56.815Z,53.03
2023-07-10T04:17:56.836Z,53.01
2023-07-10T04:18:56.834Z,53.01
2023-07-10T04:19:56.803Z,53.11
2023-07-10T04:20:56.787Z,52.91
2023-07-10T04:21:56.791Z,52.91
2023-07-10T04:22:56.787Z,53.13
2023-07-10T04:23:56.771Z,53.23
2023-07-10T04:24:56.789Z,53.03
2023-07-10T04:25:56.779Z,53.03
2023-07-10T04:26:56.818Z,53.03
2023-07-10T04:27:56.833Z,53.13
2023-07-10T04:28:56.821Z,53.01
2023-07-10T04:29:56.837Z,52.94
2023-07-10T04:30:56.936Z,53.13
2023-07-10T04:31:56.841Z,53.23
2023-07-10T04:32:56.848Z,52.91
2023-07-10T04:33:56.831Z,52.91
2023-07-10T04:34:56.824Z,53.01
2023-07-10T04:35:56.861Z,53.13
2023-07-10T04:36:56.847Z,52.91
2023-07-10T04:37:56.828Z,53.11
2023-07-10T04:38:56.818Z,53.13
2023-07-10T04:39:56.843Z,53.01
2023-07-10T04:40:56.887Z,53.01
2023-07-10T04:41:56.878Z,53.01
2023-07-10T04:42:56.901Z,53.01
2023-07-10T04:43:56.893Z,52.91
2023-07-10T04:44:56.880Z,53.01
2023-07-10T04:45:56.905Z,52.91
2023-07-10T04:46:56.925Z,53.11
2023-07-10T04:47:56.966Z,53.01
2023-07-10T04:48:56.897Z,53.11
2023-07-10T04:49:56.882Z,53.01
2023-07-10T04:50:56.883Z,52.81
2023-07-10T04:51:56.907Z,52.71
2023-07-10T04:52:56.937Z,52.81
2023-07-10T04:53:56.921Z,52.81
2023-07-10T04:54:56.936Z,52.81
2023-07-10T04:55:56.932Z,52.81
2023-07-10T04:56:56.953Z,52.81
2023-07-10T04:57:57.001Z,52.81
2023-07-10T04:58:56.984Z,52.81
2023-07-10T04:59:56.982Z,52.81
2023-07-10T05:02:23.151Z,55.81
2023-07-10T05:03:22.911Z,56.01
2023-07-10T05:04:22.931Z,56.51
2023-07-10T05:05:22.907Z,56.90
2023-07-10T05:06:22.921Z,57.20
2023-07-10T05:07:22.934Z,57.72
2023-07-10T05:08:22.964Z,58.12
2023-07-10T05:09:22.951Z,58.12
2023-07-10T05:10:22.973Z,58.12
2023-07-10T05:11:23.014Z,58.12
2023-07-10T05:12:23.037Z,58.32
2023-07-10T05:13:23.021Z,58.32
2023-07-10T05:14:23.033Z,58.32
2023-07-10T05:15:23.029Z,58.12
2023-07-10T05:16:23.051Z,58.32
2023-07-10T05:17:23.055Z,58.42
2023-07-10T05:18:23.060Z,58.42
2023-07-10T05:19:23.020Z,58.81
2023-07-10T05:20:23.032Z,59.04
2023-07-10T05:21:23.066Z,59.01
2023-07-10T05:22:23.074Z,58.91
2023-07-10T05:23:23.044Z,59.01
2023-07-10T05:24:23.073Z,59.01
2023-07-10T05:25:23.060Z,59.01
2023-07-10T05:26:23.101Z,59.01
2023-07-10T05:27:23.101Z,58.81
2023-07-10T05:28:23.085Z,58.81
2023-07-10T05:29:23.110Z,58.61
2023-07-10T05:30:23.123Z,58.91
2023-07-10T05:31:23.142Z,59.11
2023-07-10T05:32:23.185Z,59.11
2023-07-10T05:33:23.132Z,59.11
2023-07-10T05:34:23.224Z,59.21
2023-07-10T05:35:23.160Z,59.21
2023-07-10T05:36:23.221Z,59.31
2023-07-10T05:37:23.208Z,59.41
2023-07-10T05:38:23.196Z,59.31
2023-07-10T05:39:23.232Z,59.31
2023-07-10T05:40:23.218Z,59.41
2023-07-10T05:41:23.218Z,59.31
2023-07-10T05:42:23.195Z,59.41
2023-07-10T05:43:23.312Z,59.21
2023-07-10T05:44:23.201Z,59.18
2023-07-10T05:45:23.185Z,59.08
2023-07-10T05:46:23.234Z,58.98
2023-07-10T05:47:23.255Z,58.88
2023-07-10T05:48:23.229Z,58.78
2023-07-10T05:49:23.237Z,58.78
2023-07-10T05:50:23.260Z,58.78
2023-07-10T05:51:23.257Z,58.65
2023-07-10T05:52:23.230Z,58.65
2023-07-10T05:53:23.246Z,58.75
2023-07-10T05:54:23.234Z,58.95
2023-07-10T05:55:23.250Z,58.86
2023-07-10T05:56:23.286Z,58.65
2023-07-10T05:57:23.275Z,58.75
2023-07-10T05:58:23.269Z,58.95
2023-07-10T05:59:23.254Z,59.25
2023-07-10T06:00:23.285Z,59.48
2023-07-10T06:01:23.379Z,58.95
2023-07-10T06:02:23.398Z,58.75
2023-07-10T06:03:23.373Z,58.86
2023-07-10T06:04:23.322Z,58.75
2023-07-10T06:05:23.354Z,58.86
2023-07-10T06:06:23.414Z,59.05
2023-07-10T06:07:23.363Z,58.86
2023-07-10T06:08:23.347Z,58.63
2023-07-10T06:09:23.347Z,58.73
2023-07-10T06:10:23.333Z,59.35
2023-07-10T06:11:23.360Z,59.75
2023-07-10T06:12:23.383Z,59.75
2023-07-10T06:13:23.425Z,59.94
2023-07-10T06:14:23.439Z,59.94
2023-07-10T06:15:23.428Z,59.94
2023-07-10T06:16:23.519Z,59.94
2023-07-10T06:17:23.486Z,59.72
2023-07-10T06:18:23.465Z,59.72
2023-07-10T06:19:23.480Z,59.81
2023-07-10T06:20:23.490Z,59.72
2023-07-10T06:21:23.430Z,59.92
2023-07-10T06:22:23.445Z,60.02
2023-07-10T06:23:23.438Z,59.92
2023-07-10T06:24:23.482Z,59.81
2023-07-10T06:25:23.493Z,60.11
2023-07-10T06:26:23.516Z,60.44
2023-07-10T06:27:23.511Z,60.83
2023-07-10T06:28:23.557Z,60.74
2023-07-10T06:29:23.674Z,60.64
2023-07-10T06:30:23.519Z,60.54
2023-07-10T06:31:23.589Z,60.54
2023-07-10T06:32:23.588Z,60.64
2023-07-10T06:33:23.545Z,60.64
2023-07-10T06:34:23.579Z,60.64
2023-07-10T06:35:23.580Z,60.74
2023-07-10T06:36:23.598Z,60.64
2023-07-10T06:37:23.610Z,60.64
2023-07-10T06:38:23.639Z,60.74
2023-07-10T06:39:23.625Z,60.83
2023-07-10T06:40:23.619Z,60.74
2023-07-10T06:41:23.653Z,60.83
2023-07-10T06:42:23.714Z,60.71
2023-07-10T06:43:23.757Z,60.81
2023-07-10T06:44:23.743Z,60.71
2023-07-10T06:45:23.684Z,60.81
2023-07-10T06:46:23.723Z,60.71
2023-07-10T06:47:23.970Z,60.61
2023-07-10T06:48:23.713Z,60.61
2023-07-10T06:49:23.726Z,60.64
2023-07-10T06:50:23.717Z,60.74
2023-07-10T06:51:23.717Z,60.64
2023-07-10T06:52:23.705Z,60.74
2023-07-10T06:53:27.184Z,60.74
2023-07-10T06:54:23.819Z,60.94
2023-07-10T06:55:23.726Z,61.04
2023-07-10T06:56:23.737Z,61.04
2023-07-10T06:57:23.766Z,60.94
2023-07-10T06:58:23.777Z,60.94
2023-07-10T06:59:23.819Z,60.83
2023-07-10T07:00:23.879Z,60.83
2023-07-10T07:01:23.875Z,60.74
2023-07-10T07:02:23.846Z,60.94
2023-07-10T07:03:23.847Z,60.94
2023-07-10T07:04:23.868Z,60.81
2023-07-10T07:05:26.526Z,60.64
2023-07-10T07:06:23.905Z,60.51
2023-07-10T07:07:24.425Z,60.51
2023-07-10T07:08:23.924Z,60.51
2023-07-10T07:09:23.925Z,60.41
2023-07-10T07:10:23.970Z,60.61
2023-07-10T07:11:23.943Z,60.61
2023-07-10T07:12:23.943Z,60.51
2023-07-10T07:13:23.930Z,60.51
2023-07-10T07:14:23.954Z,60.71
2023-07-10T07:15:23.958Z,60.91
2023-07-10T07:16:24.015Z,60.91
2023-07-10T07:17:24.014Z,61.13
2023-07-10T07:18:26.006Z,61.23
2023-07-10T07:19:24.013Z,61.33
2023-07-10T07:20:23.999Z,61.43
2023-07-10T07:21:24.025Z,61.63
2023-07-10T07:22:24.011Z,61.83
2023-07-10T07:23:24.025Z,61.63
2023-07-10T07:24:24.001Z,61.73
2023-07-10T07:25:24.005Z,61.73
2023-07-10T07:26:24.013Z,61.63
2023-07-10T07:27:24.021Z,61.63
2023-07-10T07:28:23.982Z,61.43
2023-07-10T07:29:23.997Z,61.30
2023-07-10T07:30:23.982Z,61.10
2023-07-10T07:31:24.045Z,60.91
2023-07-10T07:32:24.070Z,60.91
2023-07-10T07:33:24.058Z,60.91
2023-07-10T07:34:24.052Z,60.91
2023-07-10T07:35:24.065Z,60.91
2023-07-10T07:36:24.047Z,60.78
2023-07-10T07:37:24.070Z,60.68
2023-07-10T07:38:24.057Z,60.88
2023-07-10T07:39:24.069Z,60.78
2023-07-10T07:40:24.121Z,60.78
2023-07-10T07:41:24.093Z,60.68
2023-07-10T07:42:24.139Z,60.48
2023-07-10T07:43:24.135Z,60.58
2023-07-10T07:44:24.129Z,60.58
2023-07-10T07:45:24.141Z,60.58
2023-07-10T07:46:24.143Z,60.58
2023-07-10T07:47:24.245Z,60.58
2023-07-10T07:48:24.209Z,60.38
2023-07-10T07:49:24.149Z,60.28
2023-07-10T07:50:24.140Z,60.58
2023-07-10T07:51:24.130Z,60.48
2023-07-10T07:52:24.191Z,60.28
2023-07-10T07:53:24.190Z,60.35
2023-07-10T07:54:26.384Z,60.25
2023-07-10T07:55:25.061Z,61.07
2023-07-10T07:56:24.216Z,61.27
2023-07-10T07:57:24.280Z,61.67
2023-07-10T07:58:24.279Z,61.67
2023-07-10T07:59:24.242Z,61.67
2023-07-10T08:00:26.494Z,61.67
2023-07-10T08:01:24.274Z,61.47
2023-07-10T08:02:24.261Z,61.57
2023-07-10T08:03:24.427Z,61.87
2023-07-10T08:04:24.401Z,61.96
2023-07-10T08:05:35.702Z,61.77
2023-07-10T08:06:24.395Z,61.57
2023-07-10T08:07:24.378Z,61.57
2023-07-10T08:08:24.489Z,61.57
2023-07-10T08:09:24.373Z,61.47
2023-07-10T08:10:24.453Z,61.27
2023-07-10T08:11:24.394Z,61.07
2023-07-10T08:12:24.415Z,60.97
2023-07-10T08:13:24.611Z,61.07
2023-07-10T08:14:24.464Z,60.78
2023-07-10T08:15:24.472Z,60.85
2023-07-10T08:16:24.524Z,61.27
2023-07-10T08:17:24.530Z,61.07
2023-07-10T08:18:24.528Z,61.18
2023-07-10T08:19:24.573Z,61.07
2023-07-10T08:20:24.574Z,61.07
2023-07-10T08:21:24.522Z,61.07
2023-07-10T08:22:24.494Z,60.65
2023-07-10T08:23:24.533Z,60.35
2023-07-10T08:24:24.529Z,59.95
2023-07-10T08:25:24.572Z,59.66
2023-07-10T08:26:24.516Z,59.46
2023-07-10T08:28:24.552Z,59.36
2023-07-10T08:29:24.583Z,59.23
2023-07-10T08:30:24.600Z,59.23
2023-07-10T08:31:24.747Z,59.23
2023-07-10T08:32:24.600Z,59.14
2023-07-10T08:33:24.584Z,59.14
2023-07-10T08:34:24.653Z,59.04
2023-07-10T08:35:24.622Z,59.14
2023-07-10T08:36:24.611Z,59.23
2023-07-10T08:37:24.606Z,58.84
2023-07-10T08:38:24.598Z,58.84
2023-07-10T08:39:24.616Z,58.64
2023-07-10T08:40:24.640Z,58.74
2023-07-10T08:41:24.670Z,58.84
2023-07-10T08:42:24.723Z,58.72
2023-07-10T08:43:24.706Z,59.01
2023-07-10T08:44:24.728Z,58.94
2023-07-10T08:45:24.753Z,59.23
2023-07-10T08:46:24.853Z,59.23
2023-07-10T08:47:24.829Z,59.23
2023-07-10T08:48:24.828Z,59.53
2023-07-10T08:49:24.798Z,59.63
2023-07-10T08:50:24.827Z,59.44
2023-07-10T08:51:24.850Z,59.23
2023-07-10T08:52:24.839Z,59.23
2023-07-10T08:53:24.814Z,59.04
2023-07-10T08:54:24.807Z,59.01
2023-07-10T08:55:24.802Z,58.84
2023-07-10T08:56:24.843Z,58.94
2023-07-10T08:57:24.818Z,59.04
2023-07-10T08:58:24.853Z,59.23
2023-07-10T08:59:24.835Z,59.23
2023-07-10T09:00:24.821Z,59.20
2023-07-10T09:01:24.903Z,59.53
2023-07-10T09:02:24.896Z,59.50
2023-07-10T09:03:24.812Z,59.70
2023-07-10T09:04:24.845Z,59.93
2023-07-10T09:05:24.852Z,59.93
2023-07-10T09:06:24.836Z,59.90
2023-07-10T09:07:24.836Z,59.90
2023-07-10T09:08:24.811Z,59.90
2023-07-10T09:09:24.862Z,59.80
2023-07-10T09:10:24.855Z,59.60
2023-07-10T09:11:24.873Z,59.41
2023-07-10T09:12:24.889Z,59.11
2023-07-10T09:13:24.910Z,59.50
2023-07-10T09:14:24.999Z,59.60
2023-07-10T09:15:24.926Z,59.70
2023-07-10T09:16:25.073Z,59.90
2023-07-10T09:17:24.979Z,59.90
2023-07-10T09:18:24.987Z,59.70
2023-07-10T09:19:25.002Z,59.60
2023-07-10T09:20:25.012Z,59.41
2023-07-10T09:21:25.002Z,59.11
2023-07-10T09:22:25.017Z,59.18
2023-07-10T09:23:25.040Z,59.18
2023-07-10T09:24:25.016Z,59.18
2023-07-10T09:25:25.051Z,59.08
2023-07-10T09:26:25.079Z,59.18
2023-07-10T09:27:25.065Z,59.28
2023-07-10T09:28:25.077Z,59.47
2023-07-10T09:29:25.051Z,59.47
2023-07-10T09:30:25.067Z,59.18
2023-07-10T09:31:25.060Z,59.08
2023-07-10T09:32:25.113Z,58.88
2023-07-10T09:33:25.064Z,58.65
2023-07-10T09:34:25.123Z,58.56
2023-07-10T09:35:25.124Z,58.36
2023-07-10T09:36:25.112Z,58.46
2023-07-10T09:37:25.095Z,58.46
2023-07-10T09:38:25.124Z,58.56
2023-07-10T09:39:25.115Z,58.26
2023-07-10T09:40:25.147Z,58.14
2023-07-10T09:41:25.171Z,57.84
2023-07-10T09:42:25.156Z,57.74
2023-07-10T09:43:25.186Z,57.61
2023-07-10T09:44:25.174Z,57.74
2023-07-10T09:45:25.179Z,57.93
2023-07-10T09:46:25.237Z,58.43
2023-07-10T09:47:25.196Z,58.23
2023-07-10T09:48:25.166Z,58.14
2023-07-10T09:49:25.204Z,58.14
2023-07-10T09:50:25.242Z,58.23
2023-07-10T09:51:25.211Z,58.11
2023-07-10T09:52:25.245Z,57.81
2023-07-10T09:53:25.220Z,58.11
2023-07-10T09:54:25.237Z,57.71
2023-07-10T09:55:25.236Z,57.61
2023-07-10T09:56:25.245Z,57.42
2023-07-10T09:57:25.244Z,57.61
2023-07-10T09:58:25.266Z,57.71
2023-07-10T09:59:25.285Z,58.11
2023-07-10T10:00:25.314Z,58.50
2023-07-10T10:01:25.393Z,58.43
2023-07-10T10:02:25.416Z,58.33
2023-07-10T10:03:25.400Z,58.04
2023-07-10T10:04:25.363Z,57.74
2023-07-10T10:05:25.389Z,58.23
2023-07-10T10:06:25.438Z,58.11
2023-07-10T10:07:25.427Z,57.61
2023-07-10T10:08:25.436Z,57.42
2023-07-10T10:09:25.459Z,57.29
2023-07-10T10:10:25.503Z,57.09
2023-07-10T10:11:25.472Z,57.09
2023-07-10T10:12:25.476Z,56.90
2023-07-10T10:13:26.993Z,56.77
2023-07-10T10:14:25.513Z,57.39
2023-07-10T10:15:25.516Z,57.59
2023-07-10T10:16:25.509Z,56.99
2023-07-10T10:17:25.565Z,57.06
2023-07-10T10:18:25.580Z,56.77
2023-07-10T10:19:25.535Z,56.48
2023-07-10T10:20:25.514Z,56.27
2023-07-10T10:21:25.529Z,56.96
2023-07-10T10:22:25.585Z,56.18
2023-07-10T10:23:25.551Z,56.18
2023-07-10T10:24:25.581Z,57.26
2023-07-10T10:25:25.567Z,57.17
2023-07-10T10:26:25.565Z,56.67
2023-07-10T10:27:25.556Z,56.18
2023-07-10T10:28:25.572Z,56.18
2023-07-10T10:29:25.606Z,56.48
2023-07-10T10:30:25.591Z,56.57
2023-07-10T10:31:25.630Z,55.79
2023-07-10T10:32:25.642Z,56.08
2023-07-10T10:33:25.580Z,56.08
2023-07-10T10:34:25.615Z,56.08
2023-07-10T10:35:25.590Z,55.98
2023-07-10T10:36:25.588Z,55.88
2023-07-10T10:37:25.601Z,55.88
2023-07-10T10:38:25.652Z,55.49
2023-07-10T10:39:25.637Z,55.29
2023-07-10T10:40:25.626Z,55.39
2023-07-10T10:41:25.625Z,55.29
2023-07-10T10:42:25.641Z,54.40
2023-07-10T10:43:25.699Z,54.60
2023-07-10T10:44:25.666Z,54.01
2023-07-10T10:45:25.665Z,54.80
2023-07-10T10:46:25.675Z,54.80
2023-07-10T10:47:25.697Z,54.57
2023-07-10T10:48:25.662Z,54.47
2023-07-10T10:49:25.721Z,53.69
2023-07-10T10:50:25.717Z,53.88
2023-07-10T10:51:25.706Z,53.78
2023-07-10T10:52:25.729Z,53.69
2023-07-10T10:53:25.757Z,53.47
2023-07-10T10:54:33.186Z,53.36
2023-07-10T10:55:25.759Z,53.27
2023-07-10T10:56:25.758Z,53.07
2023-07-10T10:57:25.762Z,53.07
2023-07-10T10:58:26.629Z,53.07
2023-07-10T10:59:25.882Z,52.58
2023-07-10T11:00:25.780Z,52.78
2023-07-10T11:01:25.830Z,52.78
2023-07-10T11:02:25.804Z,52.78
2023-07-10T11:03:25.888Z,52.68
2023-07-10T11:04:25.798Z,52.58
2023-07-10T11:05:25.816Z,52.78
2023-07-10T11:06:25.811Z,52.58
2023-07-10T11:07:25.802Z,53.27
2023-07-10T11:08:27.917Z,53.99
2023-07-10T11:09:25.817Z,53.88
2023-07-10T11:10:25.863Z,53.99
2023-07-10T11:11:25.824Z,53.86
2023-07-10T11:12:25.848Z,53.88
2023-07-10T11:13:25.927Z,53.99
2023-07-10T11:14:26.621Z,54.21
2023-07-10T11:15:25.889Z,54.11
2023-07-10T11:16:25.921Z,54.11
2023-07-10T11:17:25.940Z,54.11
2023-07-10T11:18:25.974Z,54.21
2023-07-10T11:19:25.929Z,54.21
2023-07-10T11:20:25.944Z,54.40
2023-07-10T11:21:25.957Z,54.30
2023-07-10T11:22:25.985Z,54.18
2023-07-10T11:23:25.975Z,53.99
2023-07-10T11:24:25.974Z,53.59
2023-07-10T11:25:25.954Z,53.27
2023-07-10T11:26:26.011Z,53.27
2023-07-10T11:27:25.987Z,53.49
2023-07-10T11:28:26.018Z,53.69
2023-07-10T11:29:25.997Z,54.21
2023-07-10T11:30:25.980Z,54.50
2023-07-10T11:31:26.039Z,54.90
2023-07-10T11:32:26.036Z,54.93
2023-07-10T11:33:26.010Z,54.72
2023-07-10T11:34:26.040Z,55.02
2023-07-10T11:35:26.063Z,55.12
2023-07-10T11:36:26.106Z,55.12
2023-07-10T11:37:26.075Z,55.12
2023-07-10T11:38:26.110Z,55.22
2023-07-10T11:39:26.137Z,55.22
2023-07-10T11:40:26.141Z,55.12
2023-07-10T11:41:26.127Z,55.22
2023-07-10T11:42:27.241Z,54.82
2023-07-10T11:43:26.158Z,55.02
2023-07-10T11:44:26.141Z,55.12
2023-07-10T11:45:26.155Z,55.02
2023-07-10T11:46:26.170Z,54.93
2023-07-10T11:47:26.224Z,54.75
2023-07-10T11:48:26.158Z,54.55
2023-07-10T11:49:26.195Z,54.85
2023-07-10T11:50:26.265Z,54.85
2023-07-10T11:51:26.225Z,54.55
2023-07-10T11:52:26.202Z,54.55
2023-07-10T11:53:26.194Z,53.96
2023-07-10T11:54:26.213Z,55.54
2023-07-10T11:55:26.287Z,55.83
2023-07-10T11:56:27.140Z,54.75
2023-07-10T11:57:26.297Z,54.55
2023-07-10T11:58:26.329Z,54.55
2023-07-10T11:59:26.309Z,54.55
2023-07-10T12:00:26.335Z,54.43
2023-07-10T12:01:26.358Z,54.23
2023-07-10T12:02:26.381Z,52.75
2023-07-10T12:03:26.395Z,52.95
2023-07-10T12:04:26.379Z,52.66
2023-07-10T12:05:27.158Z,52.85
2023-07-10T12:06:26.437Z,52.46
2023-07-10T12:07:26.455Z,52.46
2023-07-10T12:08:26.444Z,52.46
2023-07-10T12:09:26.460Z,51.97
2023-07-10T12:10:26.474Z,52.56
2023-07-10T12:11:26.502Z,52.56
2023-07-10T12:12:26.486Z,52.85
2023-07-10T12:13:26.601Z,52.63
2023-07-10T12:14:26.548Z,52.01
2023-07-10T12:15:26.526Z,51.79
2023-07-10T12:16:36.777Z,51.30
2023-07-10T12:17:40.192Z,51.20
2023-07-10T12:18:26.753Z,51.00
2023-07-10T12:19:26.655Z,50.90
2023-07-10T12:20:26.594Z,50.61
2023-07-10T12:21:26.605Z,50.51
2023-07-10T12:22:26.642Z,50.39
2023-07-10T12:23:26.649Z,50.29
2023-07-10T12:24:26.685Z,50.09
2023-07-10T12:25:26.687Z,50.09
2023-07-10T12:27:14.839Z,49.87
2023-07-10T12:28:28.760Z,49.38
2023-07-10T12:29:26.854Z,49.58
2023-07-10T12:30:26.784Z,49.48
2023-07-10T12:31:26.846Z,49.18
2023-07-10T12:32:26.789Z,48.96
2023-07-10T12:33:26.771Z,49.16
2023-07-10T12:34:26.786Z,48.77
2023-07-10T12:35:26.775Z,47.80
2023-07-10T12:36:26.788Z,47.29
2023-07-10T12:37:26.778Z,47.09
2023-07-10T12:38:26.799Z,46.97
2023-07-10T12:39:26.802Z,46.88
2023-07-10T12:40:26.789Z,46.38
2023-07-10T12:41:26.782Z,47.56
2023-07-10T12:42:26.812Z,47.66
2023-07-10T12:43:26.846Z,47.86
2023-07-10T12:44:26.840Z,47.86
2023-07-10T12:45:26.874Z,47.96
2023-07-10T12:46:26.938Z,48.15
2023-07-10T12:47:26.905Z,48.25
2023-07-10T12:48:26.871Z,48.15
2023-07-10T12:49:26.864Z,48.15
2023-07-10T12:50:26.937Z,47.66
2023-07-10T12:51:26.920Z,47.27
2023-07-10T12:52:26.939Z,47.36
2023-07-10T12:53:26.963Z,47.17
2023-07-10T12:54:26.980Z,46.88
2023-07-10T12:55:27.026Z,46.36
2023-07-10T12:56:27.018Z,46.17